Terminal Aerodrome Forecast
Issued by NWS Detroit/Pontiac, MI

Home | Current Version | Previous Version | Text Only | Print | Product List | Glossary On
Versions: 1 2 3 4 5 6 7 8 9 10 11 12 13 14 15 16 17 18 19 20 21 22
000
FTUS43 KDTX 012016 AAA
TAFFNT
TAF AMD
KFNT 012016Z 0120/0218 05013G20KT 1/4SM +SN BLSN VV007
     FM012200 05015G25KT 1/4SM +SN BLSN VV003
     FM020300 03015G25KT 3/4SM -SN BLSN VV007
     FM020800 03015G25KT 2SM -SN OVC010
     FM021100 34015KT P6SM OVC015
     FM021500 30010KT P6SM BKN035=

USA.gov is the U.S. government's official web portal to all federal, state and local government web resources and services.